createdAt,value
2018-07-16T00:02:17.975Z,17.71
2018-07-16T00:04:47.698Z,17.81
2018-07-16T00:07:17.278Z,17.75
2018-07-16T00:09:48.070Z,17.72
2018-07-16T00:15:42.101Z,17.65
2018-07-16T00:18:18.687Z,17.66
2018-07-16T00:21:24.628Z,17.71
2018-07-16T00:24:02.930Z,17.66
2018-07-16T00:26:37.511Z,17.66
2018-07-16T00:29:09.030Z,17.65
2018-07-16T00:31:39.332Z,17.70
2018-07-16T00:34:09.213Z,17.71
2018-07-16T00:36:38.783Z,17.72
2018-07-16T00:39:08.469Z,17.66
2018-07-16T00:41:38.599Z,17.63
2018-07-16T00:44:08.368Z,17.57
2018-07-16T00:46:38.501Z,17.56
2018-07-16T00:49:08.245Z,17.59
2018-07-16T00:51:38.127Z,17.53
2018-07-16T00:54:07.993Z,17.51
2018-07-16T00:56:37.814Z,17.46
2018-07-16T00:59:07.746Z,17.49
2018-07-16T01:01:38.838Z,17.48
2018-07-16T01:04:08.463Z,17.36
2018-07-16T01:06:38.352Z,17.38
2018-07-16T01:09:08.313Z,17.40
2018-07-16T01:11:39.534Z,17.35
2018-07-16T01:14:09.066Z,17.31
2018-07-16T01:17:40.155Z,17.20
2018-07-16T01:23:10.793Z,17.10
2018-07-16T01:25:40.767Z,17.03
2018-07-16T01:28:10.580Z,17.02
2018-07-16T01:30:40.291Z,16.99
2018-07-16T01:33:10.476Z,16.97
2018-07-16T01:35:44.032Z,16.98
2018-07-16T01:38:14.179Z,16.90
2018-07-16T01:40:44.032Z,16.87
2018-07-16T01:48:26.459Z,17.02
2018-07-16T01:50:56.236Z,16.79
2018-07-16T01:53:27.253Z,16.56
2018-07-16T01:55:56.820Z,16.39
2018-07-16T01:58:26.341Z,16.28
2018-07-16T02:03:37.346Z,16.17
2018-07-16T02:06:06.949Z,16.23
2018-07-16T02:08:37.198Z,16.22
2018-07-16T02:11:07.084Z,16.23
2018-07-16T02:13:36.782Z,16.22
2018-07-16T02:16:06.314Z,16.18
2018-07-16T02:21:43.773Z,16.12
2018-07-16T02:24:13.276Z,16.21
2018-07-16T02:26:42.755Z,16.20
2018-07-16T02:29:14.502Z,16.21
2018-07-16T02:31:47.204Z,16.20
2018-07-16T02:34:16.830Z,16.22
2018-07-16T02:36:46.775Z,16.24
2018-07-16T02:39:16.770Z,16.23
2018-07-16T02:41:46.249Z,16.23
2018-07-16T02:44:15.878Z,16.22
2018-07-16T02:46:46.721Z,16.19
2018-07-16T02:49:16.392Z,16.24
2018-07-16T02:51:45.939Z,16.25
2018-07-16T02:54:16.830Z,16.26
2018-07-16T02:57:20.101Z,16.27
2018-07-16T02:59:50.032Z,16.26
2018-07-16T03:02:21.461Z,16.21
2018-07-16T03:05:19.890Z,16.23
2018-07-16T03:07:50.279Z,16.24
2018-07-16T03:10:53.868Z,16.22
2018-07-16T03:13:23.872Z,16.23
2018-07-16T03:15:53.468Z,16.17
2018-07-16T03:18:24.496Z,16.14
2018-07-16T03:20:54.082Z,16.10
2018-07-16T03:23:23.663Z,16.13
2018-07-16T03:26:00.267Z,16.13
2018-07-16T03:28:29.911Z,16.09
2018-07-16T03:30:59.653Z,16.15
2018-07-16T03:33:29.188Z,16.19
2018-07-16T03:36:00.034Z,16.18
2018-07-16T03:38:29.865Z,16.21
2018-07-16T03:40:59.372Z,16.19
2018-07-16T03:43:28.836Z,16.16
2018-07-16T03:46:09.979Z,16.17
2018-07-16T03:48:39.810Z,16.22
2018-07-16T03:51:09.372Z,16.20
2018-07-16T03:53:42.283Z,16.23
2018-07-16T03:56:12.059Z,16.23
2018-07-16T03:58:41.912Z,16.14
2018-07-16T04:01:12.872Z,16.12
2018-07-16T04:06:25.486Z,16.13
2018-07-16T04:11:51.323Z,16.09
2018-07-16T04:14:22.191Z,16.07
2018-07-16T04:17:47.361Z,16.10
2018-07-16T04:20:18.479Z,16.08
2018-07-16T04:22:48.788Z,16.10
2018-07-16T04:25:21.150Z,16.14
2018-07-16T04:27:56.101Z,16.19
2018-07-16T04:30:25.534Z,16.24
2018-07-16T04:32:57.459Z,16.26
2018-07-16T04:35:27.245Z,16.24
2018-07-16T04:37:56.769Z,16.27
2018-07-16T04:43:22.211Z,16.35
2018-07-16T04:48:20.690Z,16.40
2018-07-16T04:50:50.366Z,16.51
2018-07-16T04:53:20.122Z,16.54
2018-07-16T04:59:32.266Z,16.72
2018-07-16T05:02:21.956Z,16.80
2018-07-16T05:04:51.909Z,16.90
2018-07-16T05:07:21.667Z,16.91
2018-07-16T05:09:51.854Z,16.94
2018-07-16T05:12:21.943Z,16.99
2018-07-16T05:14:56.402Z,17.01
2018-07-16T05:17:27.265Z,17.05
2018-07-16T05:19:57.115Z,17.05
2018-07-16T05:22:26.832Z,17.14
2018-07-16T05:24:58.224Z,17.21
2018-07-16T05:27:28.071Z,17.26
2018-07-16T05:29:58.625Z,17.27
2018-07-16T05:32:36.506Z,17.33
2018-07-16T05:35:06.090Z,17.42
2018-07-16T05:37:39.599Z,17.45
2018-07-16T05:40:10.606Z,17.42
2018-07-16T05:42:40.221Z,17.44
2018-07-16T05:45:09.681Z,17.42
2018-07-16T05:47:39.543Z,17.45
2018-07-16T05:50:09.211Z,17.53
2018-07-16T05:52:38.753Z,17.56
2018-07-16T05:55:08.293Z,17.69
2018-07-16T05:57:48.354Z,17.71
2018-07-16T06:00:17.878Z,17.73
2018-07-16T06:02:47.776Z,17.77
2018-07-16T06:05:18.629Z,17.76
2018-07-16T06:07:48.489Z,17.82
2018-07-16T06:10:18.133Z,17.91
2018-07-16T06:12:53.448Z,18.02
2018-07-16T06:15:24.959Z,18.11
2018-07-16T06:17:58.694Z,18.18
2018-07-16T06:20:28.690Z,18.19
2018-07-16T06:22:59.540Z,18.17
2018-07-16T06:25:29.094Z,18.21
2018-07-16T06:27:58.698Z,18.30
2018-07-16T06:30:28.511Z,18.38
2018-07-16T06:32:58.626Z,18.41
2018-07-16T06:35:38.357Z,18.56
2018-07-16T06:38:11.345Z,18.69
2018-07-16T06:40:41.215Z,18.80
2018-07-16T06:43:10.935Z,18.90
2018-07-16T06:45:41.471Z,19.02
2018-07-16T06:48:16.169Z,19.16
2018-07-16T06:50:46.198Z,19.41
2018-07-16T06:53:17.085Z,19.45
2018-07-16T06:55:48.515Z,19.64
2018-07-16T06:58:18.728Z,19.75
2018-07-16T07:00:48.799Z,19.87
2018-07-16T07:03:18.670Z,19.72
2018-07-16T07:05:49.412Z,19.80
2018-07-16T07:08:20.285Z,19.92
2018-07-16T07:10:52.491Z,19.98
2018-07-16T07:13:33.149Z,19.92
2018-07-16T07:16:08.342Z,20.00
2018-07-16T07:18:38.055Z,20.08
2018-07-16T07:21:07.941Z,20.28
2018-07-16T07:23:37.651Z,20.36
2018-07-16T07:26:07.125Z,20.37
2018-07-16T07:28:36.581Z,20.47
2018-07-16T07:31:06.513Z,20.52
2018-07-16T07:33:36.148Z,20.59
2018-07-16T07:36:05.908Z,20.57
2018-07-16T07:38:36.591Z,20.60
2018-07-16T07:42:45.582Z,20.81
2018-07-16T07:45:15.711Z,20.76
2018-07-16T07:47:45.255Z,20.79
2018-07-16T07:50:14.586Z,20.88
2018-07-16T07:52:44.433Z,20.98
2018-07-16T07:55:14.313Z,21.02
2018-07-16T07:57:43.518Z,21.00
2018-07-16T08:00:14.590Z,21.17
2018-07-16T08:02:45.146Z,21.11
2018-07-16T08:05:14.854Z,21.05
2018-07-16T08:07:44.565Z,21.03
2018-07-16T08:10:14.810Z,21.14
2018-07-16T08:12:44.461Z,21.23
2018-07-16T08:15:16.583Z,21.36
2018-07-16T08:17:46.033Z,21.52
2018-07-16T08:20:15.522Z,21.61
2018-07-16T08:22:45.353Z,21.71
2018-07-16T08:25:14.820Z,21.77
2018-07-16T08:27:44.606Z,22.02
2018-07-16T08:30:19.497Z,22.11
2018-07-16T08:32:49.145Z,22.33
2018-07-16T08:35:18.702Z,22.54
2018-07-16T08:37:48.822Z,22.69
2018-07-16T08:40:18.683Z,22.94
2018-07-16T08:45:42.106Z,23.06
2018-07-16T08:48:11.924Z,23.14
2018-07-16T08:50:41.470Z,23.35
2018-07-16T08:53:14.576Z,23.89
2018-07-16T08:55:44.061Z,24.99
2018-07-16T08:58:14.067Z,25.92
2018-07-16T09:00:45.921Z,26.11
2018-07-16T09:03:15.609Z,26.13
2018-07-16T09:05:45.206Z,26.41
2018-07-16T09:08:15.810Z,26.14
2018-07-16T09:10:45.408Z,26.39
2018-07-16T09:13:14.990Z,25.98
2018-07-16T09:15:46.665Z,25.79
2018-07-16T09:18:16.074Z,25.79
2018-07-16T09:20:45.835Z,25.35
2018-07-16T09:23:15.780Z,25.69
2018-07-16T09:25:45.262Z,26.78
2018-07-16T09:28:14.727Z,28.08
2018-07-16T09:30:45.627Z,28.60
2018-07-16T09:33:15.280Z,29.13
2018-07-16T09:35:45.344Z,29.16
2018-07-16T09:38:15.259Z,29.48
2018-07-16T09:40:44.845Z,30.43
2018-07-16T09:43:14.314Z,31.08
2018-07-16T09:45:44.116Z,31.11
2018-07-16T09:48:13.923Z,31.48
2018-07-16T09:50:43.398Z,30.47
2018-07-16T09:53:14.097Z,31.23
2018-07-16T09:55:43.736Z,31.52
2018-07-16T09:58:13.215Z,31.12
2018-07-16T10:00:48.236Z,30.42
2018-07-16T10:03:21.584Z,30.95
2018-07-16T10:05:51.078Z,31.56
2018-07-16T10:08:22.229Z,31.64
2018-07-16T10:13:37.069Z,31.93
2018-07-16T10:21:50.711Z,31.53
2018-07-16T10:24:22.964Z,31.91
2018-07-16T10:29:58.626Z,31.98
2018-07-16T10:32:36.667Z,32.04
2018-07-16T10:35:16.901Z,31.25
2018-07-16T10:43:49.059Z,30.95
2018-07-16T10:49:15.546Z,30.18
2018-07-16T10:52:06.820Z,30.85
2018-07-16T10:54:40.310Z,31.15
2018-07-16T10:57:11.660Z,30.09
2018-07-16T10:59:43.733Z,29.34
2018-07-16T11:02:16.180Z,29.48
2018-07-16T11:04:46.836Z,30.67
2018-07-16T11:10:11.423Z,30.05
2018-07-16T11:12:41.641Z,29.88
2018-07-16T11:21:15.284Z,31.52
2018-07-16T11:23:46.324Z,31.16
2018-07-16T11:26:16.156Z,31.29
2018-07-16T11:30:11.933Z,31.18
2018-07-16T11:32:41.777Z,30.92
2018-07-16T11:38:50.777Z,30.44
2018-07-16T11:41:20.406Z,29.06
2018-07-16T11:44:02.157Z,29.85
2018-07-16T11:46:32.158Z,30.49
2018-07-16T11:49:01.842Z,31.96
2018-07-16T11:51:32.558Z,33.36
2018-07-16T11:54:26.152Z,34.02
2018-07-16T11:56:56.564Z,34.95
2018-07-16T11:59:27.122Z,34.06
2018-07-16T12:01:58.625Z,33.72
2018-07-16T12:04:28.260Z,32.91
2018-07-16T12:06:59.149Z,31.76
2018-07-16T12:09:29.259Z,30.63
2018-07-16T12:11:59.350Z,30.54
2018-07-16T12:14:29.331Z,30.67
2018-07-16T12:16:59.501Z,30.64
2018-07-16T12:19:32.465Z,31.69
2018-07-16T12:22:02.126Z,32.03
2018-07-16T12:24:32.016Z,33.52
2018-07-16T12:27:01.739Z,34.65
2018-07-16T12:29:31.806Z,35.02
2018-07-16T12:32:01.566Z,34.41
2018-07-16T12:34:31.597Z,34.44
2018-07-16T12:37:02.047Z,34.85
2018-07-16T12:39:32.468Z,35.78
2018-07-16T12:42:02.159Z,35.12
2018-07-16T12:47:27.415Z,34.23
2018-07-16T12:49:58.292Z,33.01
2018-07-16T12:52:28.205Z,32.78
2018-07-16T12:54:58.381Z,32.26
2018-07-16T12:57:28.490Z,32.84
2018-07-16T13:04:01.503Z,33.83
2018-07-16T13:08:52.567Z,33.85
2018-07-16T13:17:34.902Z,30.12
2018-07-16T13:20:05.423Z,33.91
2018-07-16T13:22:35.125Z,35.76
2018-07-16T13:25:04.740Z,36.04
2018-07-16T13:27:34.517Z,36.71
2018-07-16T13:30:04.403Z,37.41
2018-07-16T13:32:34.626Z,37.71
2018-07-16T13:35:04.366Z,38.19
2018-07-16T13:37:34.705Z,38.98
2018-07-16T13:46:10.273Z,38.45
2018-07-16T13:48:40.247Z,41.08
2018-07-16T13:56:56.760Z,40.98
2018-07-16T13:59:42.078Z,41.31
2018-07-16T14:02:58.066Z,40.66
2018-07-16T14:05:27.600Z,36.05
2018-07-16T14:07:57.288Z,34.42
2018-07-16T14:10:29.303Z,34.43
2018-07-16T14:12:58.934Z,35.26
2018-07-16T14:15:58.782Z,36.65
2018-07-16T14:18:48.895Z,38.93
2018-07-16T14:21:18.852Z,39.77
2018-07-16T14:26:43.403Z,38.02
2018-07-16T14:29:19.197Z,36.35
2018-07-16T14:32:09.615Z,34.12
2018-07-16T14:34:50.934Z,33.46
2018-07-16T14:40:14.707Z,36.95
2018-07-16T14:42:44.279Z,38.71
2018-07-16T14:45:13.997Z,38.66
2018-07-16T14:51:09.546Z,35.20
2018-07-16T14:53:39.258Z,35.56
2018-07-16T14:56:09.680Z,37.01
2018-07-16T14:58:39.410Z,36.60
2018-07-16T15:01:09.181Z,35.36
2018-07-16T15:03:39.099Z,34.79
2018-07-16T15:06:25.801Z,36.30
2018-07-16T15:08:55.622Z,36.44
2018-07-16T15:11:26.534Z,36.83
2018-07-16T15:13:58.469Z,36.97
2018-07-16T15:16:28.246Z,38.22
2018-07-16T15:18:58.052Z,38.68
2018-07-16T15:25:07.933Z,38.45
2018-07-16T15:27:37.670Z,38.89
2018-07-16T15:30:17.085Z,38.52
2018-07-16T15:32:56.952Z,38.01
2018-07-16T15:35:31.671Z,37.74
2018-07-16T15:38:01.384Z,38.01
2018-07-16T15:40:31.136Z,37.77
2018-07-16T15:43:01.766Z,37.62
2018-07-16T15:45:33.825Z,37.46
2018-07-16T15:48:31.409Z,37.44
2018-07-16T15:51:01.525Z,35.14
2018-07-16T15:53:31.678Z,33.00
2018-07-16T15:56:01.295Z,32.03
2018-07-16T15:58:38.740Z,30.98
2018-07-16T16:01:09.957Z,30.23
2018-07-16T16:06:24.693Z,29.62
2018-07-16T16:08:55.169Z,29.39
2018-07-16T16:11:26.569Z,29.49
2018-07-16T16:14:07.023Z,29.46
2018-07-16T16:16:38.488Z,29.25
2018-07-16T16:21:59.981Z,28.64
2018-07-16T16:24:32.734Z,28.69
2018-07-16T16:27:07.361Z,28.68
2018-07-16T16:29:40.726Z,28.59
2018-07-16T16:32:12.809Z,28.44
2018-07-16T16:35:05.260Z,28.19
2018-07-16T16:37:35.926Z,28.32
2018-07-16T16:40:11.004Z,28.25
2018-07-16T16:42:44.138Z,28.24
2018-07-16T16:45:14.710Z,28.19
2018-07-16T16:47:46.075Z,28.08
2018-07-16T16:50:17.795Z,28.04
2018-07-16T16:55:44.210Z,27.80
2018-07-16T16:58:35.821Z,27.21
2018-07-16T17:01:27.743Z,27.49
2018-07-16T17:13:30.682Z,27.09
2018-07-16T17:16:18.541Z,27.10
2018-07-16T17:18:51.532Z,26.96
2018-07-16T17:21:22.125Z,26.87
2018-07-16T17:24:55.931Z,26.77
2018-07-16T17:27:36.185Z,26.72
2018-07-16T17:30:07.393Z,26.56
2018-07-16T17:32:49.695Z,26.49
2018-07-16T17:35:19.977Z,26.35
2018-07-16T17:37:50.238Z,26.22
2018-07-16T17:40:23.821Z,26.11
2018-07-16T17:45:48.742Z,25.92
2018-07-16T17:48:19.470Z,25.77
2018-07-16T17:50:49.320Z,25.70
2018-07-16T17:53:36.205Z,25.75
2018-07-16T17:56:06.382Z,25.72
2018-07-16T17:58:44.310Z,25.66
2018-07-16T18:01:14.623Z,25.67
2018-07-16T18:03:44.215Z,25.69
2018-07-16T18:06:14.281Z,25.72
2018-07-16T18:08:48.960Z,25.66
2018-07-16T18:11:18.820Z,25.67
2018-07-16T18:13:48.677Z,25.52
2018-07-16T18:16:20.466Z,25.46
2018-07-16T18:18:50.006Z,25.41
2018-07-16T18:21:23.812Z,25.33
2018-07-16T18:23:59.295Z,25.16
2018-07-16T18:26:29.684Z,25.16
2018-07-16T18:28:59.765Z,25.14
2018-07-16T18:31:29.580Z,24.94
2018-07-16T18:33:59.661Z,24.79
2018-07-16T18:36:29.104Z,24.68
2018-07-16T18:39:15.015Z,24.58
2018-07-16T18:52:23.976Z,23.72
2018-07-16T18:55:06.417Z,23.69
